首页
METAR-TAF:

METAR-TAF

机场 :

Roseburg Regional Airport (Marion E. Carl Memorial Field)

罗斯堡, 俄勒冈州, 美国

纬度: 43-14-02N, 经度: 123-21-22W, 海拔: 160米

当前天气观测

该预报发布于55分钟前的15:53 UTC
静风
温度 7°C
湿度 100%
气压 1019 hPa
能見度: 12.9公里
散云层高于6000英尺
多云层高于10000英尺

METAR: KRBG 121553Z AUTO 00000KT 8SM SCT060 BKN100 07/07 A3008 RMK AO2 SLP186 T00720072

时间: 08:48 (16:48 UTC)

预报

该预报发布于5小时和12分钟前的11:36 UTC
预报有效从12日的 12点(UTC)到 13日的 12点(UTC)
风速节,风向
能見度: 10公里
散云层高于300英尺
多云层高于4000英尺
从 12日的 1400点(UTC)
风速节,风向
能見度: 3.2公里
多云层高于300英尺
阴天层高于3000英尺
轻雾
从 12日的 1800点(UTC)
风速7节,风向
能見度: 6.4公里
多云层高于2000英尺
阴天层高于4000英尺
小雨, 轻雾
从 13日的 0300点(UTC)
风速3节,风向多变
能見度: 8.0公里
散云层高于1000英尺
阴天层高于3500英尺
小阵雨, 轻雾

TAF: KRBG 121136Z 1212/1312 00000KT P6SM SCT003 BKN040 FM121400 00000KT 2SM BR BKN003 OVC030 FM121800 17007KT 4SM -RA BR BKN020 OVC040 FM130300 VRB03KT 5SM -SHRA BR SCT010 OVC035

超过4000个机场的气象观测和天气预报(METAR&TAF报告)。

可查询的气象台以黄色和红色小点在地图上表示。

将鼠标移到小点上方,可查看气象台名称。

然后点击查看天气观测和预报。

如需切换地图:点击带黑十字的绿色按钮放大地图;点击带横线的绿色按钮缩小地图;或者点击绿色箭头查看邻近地区的地图。


METAR-TAF: